Time;durP1;ratioP1;P1;durP2;ratioP2;P2;SDS_P1;SDS_P2;PMS_P1;PMS_P2;Temp;Humidity;BMP_temperature;BMP_pressure;BME280_temperature;BME280_humidity;BME280_pressure;Samples;Min_cycle;Max_cycle;Signal;HPM_P1;HPM_P2
2022/01/18 00:00:28;;;;;;;21.30;9.63;;;;;;;0.94;90.35;95544.31;5009242;28;20038;-60
2022/01/18 00:02:58;;;;;;;18.92;9.57;;;;;;;0.93;90.63;95548.94;5011223;28;20064;-60
2022/01/18 00:05:26;;;;;;;19.33;9.65;;;;;;;0.84;91.04;95552.72;5011218;28;20433;-60
2022/01/18 00:07:54;;;;;;;22.75;10.45;;;;;;;0.78;90.74;95554.75;5011073;28;20054;-60
2022/01/18 00:10:23;;;;;;;21.88;10.50;;;;;;;0.84;90.88;95550.81;5028875;28;20045;-60
2022/01/18 00:15:43;;;;;;;22.23;10.40;;;;;;;0.71;91.85;95551.72;5030799;28;20502;-60
2022/01/18 00:18:13;;;;;;;25.70;11.73;;;;;;;0.70;91.94;95548.22;5030348;28;21604;-62
2022/01/18 00:23:37;;;;;;;22.27;10.60;;;;;;;0.55;92.36;95538.63;5030671;28;20049;-61
2022/01/18 00:26:06;;;;;;;22.03;9.73;;;;;;;0.70;91.95;95537.41;5030817;28;20053;-60
2022/01/18 00:28:34;;;;;;;19.60;10.05;;;;;;;0.82;91.34;95533.31;5030714;28;20049;-61
2022/01/18 00:39:12;;;;;;;19.23;9.20;;;;;;;0.84;89.97;95540.00;5014491;28;22715;-63
2022/01/18 00:41:39;;;;;;;21.48;9.82;;;;;;;0.78;90.41;95539.34;5030280;28;20063;-61
2022/01/18 00:44:08;;;;;;;24.58;11.60;;;;;;;0.79;90.29;95534.75;5030278;28;20052;-61
2022/01/18 00:46:36;;;;;;;22.58;10.82;;;;;;;0.83;90.01;95543.03;5029467;28;20061;-54
2022/01/18 00:49:04;;;;;;;22.08;10.15;;;;;;;0.78;89.91;95547.44;5062266;28;20052;-61
2022/01/18 00:51:36;;;;;;;22.73;10.17;;;;;;;0.54;90.67;95544.34;5030340;28;20167;-60
2022/01/18 00:54:04;;;;;;;23.02;10.32;;;;;;;0.42;91.21;95523.31;5021765;28;22516;-60
2022/01/18 00:56:31;;;;;;;21.45;10.27;;;;;;;0.33;91.75;95522.50;5029510;28;20076;-60
2022/01/18 00:59:00;;;;;;;19.95;9.75;;;;;;;0.25;91.86;95526.72;5030003;28;20045;-60
2022/01/18 01:01:29;;;;;;;20.52;10.82;;;;;;;0.33;91.85;95527.88;5030087;28;20100;-61
2022/01/18 01:04:00;;;;;;;32.80;13.67;;;;;;;0.31;92.45;95528.19;5028558;28;20075;-60
2022/01/18 01:06:27;;;;;;;31.23;13.30;;;;;;;0.35;92.02;95531.88;5029822;28;20053;-60
2022/01/18 01:08:54;;;;;;;37.03;15.18;;;;;;;0.41;92.26;95529.84;5022582;28;20052;-61
2022/01/18 01:11:21;;;;;;;33.58;14.48;;;;;;;0.46;92.35;95531.59;5009997;28;20050;-61
2022/01/18 01:13:51;;;;;;;28.52;12.18;;;;;;;0.53;92.06;95527.34;5041494;28;20049;-60
2022/01/18 01:33:51;;;;;;;28.63;12.82;;;;;;;0.59;91.67;95544.22;5009957;28;20148;-60
2022/01/18 01:44:20;;;;;;;23.37;11.03;;;;;;;0.80;90.87;95544.44;5009465;28;20054;-61
2022/01/18 01:46:40;;;;;;;20.90;10.23;;;;;;;0.77;90.96;95532.34;5010838;28;20364;-60
2022/01/18 01:49:12;;;;;;;21.23;10.55;;;;;;;0.79;90.88;95532.84;5008312;28;20514;-60
2022/01/18 01:51:39;;;;;;;21.45;10.45;;;;;;;0.84;90.81;95526.47;5009029;28;20053;-61
2022/01/18 01:54:09;;;;;;;26.35;11.27;;;;;;;0.82;90.83;95519.81;5008258;28;20643;-61
2022/01/18 01:56:36;;;;;;;22.93;10.77;;;;;;;0.92;90.60;95519.50;5008996;28;20049;-60
2022/01/18 01:59:05;;;;;;;21.77;10.15;;;;;;;0.86;90.03;95518.84;5009648;28;20056;-61
2022/01/18 02:01:45;;;;;;;19.77;9.88;;;;;;;0.83;90.30;95527.59;5009088;28;20061;-60
2022/01/18 02:04:13;;;;;;;20.75;9.82;;;;;;;0.90;90.43;95535.25;5008873;28;20050;-60
2022/01/18 02:06:39;;;;;;;20.92;9.70;;;;;;;0.95;89.88;95533.22;5008717;28;20044;-61
2022/01/18 02:09:07;;;;;;;19.57;9.77;;;;;;;0.96;90.27;95534.00;5008724;28;20049;-61
2022/01/18 02:11:34;;;;;;;20.20;10.13;;;;;;;0.97;90.16;95530.97;5024054;28;20045;-61
2022/01/18 02:14:02;;;;;;;19.77;9.35;;;;;;;0.93;89.55;95526.53;5008439;28;20106;-60
2022/01/18 02:22:06;;;;;;;20.87;9.53;;;;;;;0.69;90.87;95532.34;5008534;28;21276;-61
2022/01/18 02:24:33;;;;;;;19.02;9.20;;;;;;;0.88;90.89;95522.03;5008926;28;20042;-61
2022/01/18 02:26:59;;;;;;;17.40;8.60;;;;;;;0.98;89.99;95523.66;5008718;28;20049;-61
2022/01/18 02:29:26;;;;;;;19.48;8.88;;;;;;;0.95;89.93;95519.69;5009030;28;20152;-60
2022/01/18 02:31:54;;;;;;;18.48;9.35;;;;;;;0.87;90.12;95523.16;5008651;28;20045;-60
2022/01/18 02:34:22;;;;;;;20.17;9.37;;;;;;;0.74;90.50;95532.19;5008740;28;20048;-61
2022/01/18 02:36:50;;;;;;;18.67;8.63;;;;;;;0.86;90.28;95526.19;5006959;28;20049;-61
2022/01/18 02:39:25;;;;;;;18.58;9.13;;;;;;;0.91;90.52;95512.53;5008907;28;20038;-60
2022/01/18 02:42:04;;;;;;;19.92;8.82;;;;;;;0.92;90.42;95520.31;5008433;28;20506;-61
2022/01/18 02:44:32;;;;;;;20.55;9.80;;;;;;;0.83;90.86;95514.09;5008730;28;20406;-61
2022/01/18 02:47:00;;;;;;;20.73;10.23;;;;;;;0.84;90.23;95512.97;5008317;28;20557;-61
2022/01/18 02:49:28;;;;;;;20.83;9.20;;;;;;;0.91;90.55;95517.94;5023711;28;20042;-61
2022/01/18 02:51:57;;;;;;;21.23;9.52;;;;;;;0.86;90.22;95509.97;5008560;28;21370;-61
2022/01/18 02:54:23;;;;;;;18.15;8.52;;;;;;;0.85;89.65;95513.78;5007204;28;20048;-61
2022/01/18 02:56:56;;;;;;;20.05;9.95;;;;;;;0.67;90.29;95516.44;5008445;28;20046;-61
2022/01/18 02:59:56;;;;;;;19.67;9.63;;;;;;;0.75;90.59;95525.69;5008520;28;20050;-61
2022/01/18 03:05:15;;;;;;;23.80;10.43;;;;;;;0.41;91.09;95518.25;5007710;28;21723;-61
2022/01/18 03:07:43;;;;;;;19.90;9.02;;;;;;;0.40;91.25;95509.31;5007959;28;20050;-60
2022/01/18 03:10:12;;;;;;;19.77;9.38;;;;;;;0.43;90.88;95518.72;5008603;28;20512;-61
2022/01/18 03:12:39;;;;;;;19.87;9.30;;;;;;;0.42;90.64;95511.72;5007812;28;20050;-61
2022/01/18 03:15:07;;;;;;;20.45;9.27;;;;;;;0.43;90.97;95518.72;5008494;28;20655;-61
2022/01/18 03:17:34;;;;;;;23.20;10.20;;;;;;;0.42;90.75;95527.91;5008423;28;20056;-60
2022/01/18 03:20:03;;;;;;;20.52;9.70;;;;;;;0.39;90.59;95518.53;5007729;28;20567;-60
2022/01/18 03:22:31;;;;;;;19.63;9.13;;;;;;;0.34;90.26;95527.59;5012889;28;20050;-61
2022/01/18 03:30:28;;;;;;;21.83;10.38;;;;;;;-0.09;92.16;95530.03;5043844;28;20044;-61
2022/01/18 03:32:55;;;;;;;22.95;10.15;;;;;;;-0.07;92.59;95519.72;5009941;28;20049;-61
2022/01/18 03:35:23;;;;;;;23.08;10.27;;;;;;;-0.07;92.48;95528.59;5027233;28;20421;-61
2022/01/18 03:37:50;;;;;;;25.23;11.03;;;;;;;-0.08;92.15;95527.03;5011795;28;20042;-61
2022/01/18 03:40:18;;;;;;;25.73;10.88;;;;;;;-0.03;92.18;95528.78;5010745;28;20052;-60
2022/01/18 03:42:46;;;;;;;25.83;11.25;;;;;;;0.00;92.38;95525.50;5010040;28;20095;-61
2022/01/18 03:45:27;;;;;;;25.92;10.90;;;;;;;-0.04;92.41;95530.72;5011990;28;20099;-61
2022/01/18 03:47:56;;;;;;;24.65;11.00;;;;;;;-0.13;92.65;95529.84;5010089;28;20052;-61
2022/01/18 03:50:24;;;;;;;28.10;10.67;;;;;;;-0.01;92.47;95545.47;5011689;28;20038;-64
2022/01/18 03:52:51;;;;;;;23.73;10.07;;;;;;;-0.07;91.74;95541.31;5011557;28;20495;-61
2022/01/18 03:55:19;;;;;;;29.30;12.57;;;;;;;-0.13;92.20;95543.34;5011862;28;20430;-61
2022/01/18 03:57:47;;;;;;;25.50;11.30;;;;;;;-0.12;92.33;95539.53;5026015;28;20096;-61
2022/01/18 04:00:17;;;;;;;24.48;11.20;;;;;;;-0.16;92.87;95535.88;5011734;28;20080;-61
2022/01/18 04:02:45;;;;;;;29.20;12.07;;;;;;;-0.19;93.22;95525.69;5010848;28;20050;-61
2022/01/18 04:05:12;;;;;;;25.45;10.85;;;;;;;-0.20;93.37;95529.50;5011657;28;20495;-61
2022/01/18 04:07:39;;;;;;;27.85;11.60;;;;;;;-0.13;93.88;95534.44;5010590;28;20050;-61
2022/01/18 04:10:07;;;;;;;27.88;11.70;;;;;;;-0.12;94.15;95530.63;5011434;28;20042;-62
2022/01/18 04:12:35;;;;;;;26.40;11.48;;;;;;;-0.37;93.98;95535.53;5011102;28;20050;-60
2022/01/18 04:15:14;;;;;;;27.67;11.77;;;;;;;-0.53;94.03;95532.41;5010236;28;20374;-59
2022/01/18 04:31:04;;;;;;;31.60;12.40;;;;;;;-0.08;93.08;95526.22;5008890;28;20044;-61
2022/01/18 04:33:32;;;;;;;33.97;14.13;;;;;;;-0.12;93.03;95527.94;5010856;28;20042;-61
2022/01/18 04:35:59;;;;;;;29.98;12.38;;;;;;;-0.09;93.55;95528.13;5010536;28;20060;-61
2022/01/18 04:38:26;;;;;;;33.10;13.05;;;;;;;0.04;93.53;95525.66;5010934;28;20171;-63
2022/01/18 04:40:58;;;;;;;34.10;14.07;;;;;;;0.07;93.13;95525.06;5025267;28;20042;-61
2022/01/18 04:43:42;;;;;;;34.17;13.23;;;;;;;0.16;92.88;95525.88;5010819;28;20050;-61
2022/01/18 04:48:56;;;;;;;29.48;12.23;;;;;;;0.35;92.36;95536.47;5010317;28;20058;-62
2022/01/18 04:51:22;;;;;;;29.65;13.63;;;;;;;0.20;92.42;95534.94;5010648;28;20057;-60
2022/01/18 04:53:56;;;;;;;30.10;12.93;;;;;;;0.22;91.95;95526.56;5009657;28;20517;-61
2022/01/18 04:57:51;;;;;;;38.10;14.90;;;;;;;0.13;92.88;95531.91;5010789;28;20072;-61
2022/01/18 04:59:15;;;;;;;37.03;15.75;;;;;;;0.29;92.39;95526.91;5009906;28;20663;-62
2022/01/18 05:01:44;;;;;;;32.00;13.88;;;;;;;0.37;92.25;95526.16;5009724;28;20046;-61
2022/01/18 05:04:12;;;;;;;33.38;14.07;;;;;;;0.39;92.15;95526.66;5009148;28;20045;-62
2022/01/18 05:06:42;;;;;;;37.97;14.93;;;;;;;0.41;92.00;95529.03;5008024;28;20046;-61
2022/01/18 05:09:10;;;;;;;35.35;14.32;;;;;;;0.37;92.39;95528.84;5010027;28;20053;-61
2022/01/18 05:11:52;;;;;;;32.42;13.90;;;;;;;0.53;92.22;95532.75;5009434;28;20038;-61
2022/01/18 05:14:29;;;;;;;34.55;14.32;;;;;;;0.36;92.06;95530.78;5041662;28;20054;-59
2022/01/18 05:17:15;;;;;;;39.50;15.43;;;;;;;0.27;92.95;95527.22;5041337;28;20057;-61
2022/01/18 05:24:35;;;;;;;36.15;15.27;;;;;;;0.49;92.22;95523.66;5009089;28;20042;-55
2022/01/18 05:27:03;;;;;;;43.05;16.83;;;;;;;0.47;91.80;95522.41;5009695;28;20072;-61
2022/01/18 05:29:30;;;;;;;42.45;17.15;;;;;;;0.48;92.48;95535.56;5009157;28;20499;-62
2022/01/18 05:31:57;;;;;;;49.73;18.33;;;;;;;0.47;92.06;95542.09;5009240;28;20057;-61
2022/01/18 05:34:24;;;;;;;45.65;18.52;;;;;;;0.51;91.97;95531.47;5009781;28;20053;-61
2022/01/18 05:36:50;;;;;;;43.83;16.90;;;;;;;0.42;92.42;95536.81;5007543;28;20056;-61
2022/01/18 05:39:17;;;;;;;41.25;16.20;;;;;;;0.47;92.32;95533.19;5009790;28;20450;-61
2022/01/18 05:41:45;;;;;;;45.58;15.38;;;;;;;0.51;92.54;95534.16;5008824;28;20042;-61
2022/01/18 05:44:13;;;;;;;44.00;16.27;;;;;;;0.39;92.18;95532.03;5009364;28;20502;-61
2022/01/18 05:46:40;;;;;;;38.67;15.40;;;;;;;0.31;92.97;95540.91;5007414;28;20503;-61
2022/01/18 05:49:07;;;;;;;41.80;15.90;;;;;;;0.47;92.73;95530.50;5009406;28;20091;-61
2022/01/18 05:51:36;;;;;;;39.78;15.68;;;;;;;0.47;92.45;95527.78;5007981;28;20081;-61
2022/01/18 05:54:04;;;;;;;43.47;18.13;;;;;;;0.33;92.89;95530.59;5007124;28;20054;-60
2022/01/18 05:56:31;;;;;;;44.70;18.43;;;;;;;0.41;92.96;95535.22;5009147;28;20085;-64
2022/01/18 05:59:02;;;;;;;44.30;19.05;;;;;;;0.48;92.20;95532.88;5008837;28;20495;-61
2022/01/18 06:01:33;;;;;;;43.83;17.23;;;;;;;0.51;92.42;95528.75;5008080;28;20042;-61
2022/01/18 06:09:14;;;;;;;41.13;15.63;;;;;;;0.42;92.54;95533.31;5008136;28;21534;-61
2022/01/18 06:11:41;;;;;;;44.42;17.40;;;;;;;0.43;92.96;95534.94;5008234;28;20167;-61
2022/01/18 06:14:08;;;;;;;40.33;16.58;;;;;;;0.47;92.45;95533.19;5009062;28;20053;-61
2022/01/18 06:16:35;;;;;;;38.20;14.98;;;;;;;0.55;92.49;95535.13;5006875;28;20518;-61
2022/01/18 06:19:02;;;;;;;38.83;16.25;;;;;;;0.56;92.33;95534.84;5008386;28;20734;-61
2022/01/18 06:21:29;;;;;;;61.93;26.70;;;;;;;0.40;92.66;95539.03;5007480;28;20060;-61
2022/01/18 06:23:56;;;;;;;60.85;25.52;;;;;;;0.19;94.19;95536.06;5008386;28;20071;-61
2022/01/18 06:26:23;;;;;;;58.08;22.42;;;;;;;0.30;93.40;95534.72;5008793;28;20708;-61
2022/01/18 06:28:50;;;;;;;55.97;22.58;;;;;;;0.42;93.25;95536.03;5008084;28;20058;-61
2022/01/18 06:31:17;;;;;;;46.38;19.40;;;;;;;0.49;93.29;95531.78;5008943;28;20049;-61
2022/01/18 06:33:44;;;;;;;34.80;15.53;;;;;;;0.47;92.79;95542.09;5022963;28;20042;-61
2022/01/18 06:36:13;;;;;;;33.42;13.65;;;;;;;0.51;93.04;95536.88;5009049;28;20042;-62
2022/01/18 06:38:39;;;;;;;29.25;12.15;;;;;;;0.70;92.23;95536.63;5007952;28;20060;-61
2022/01/18 06:41:06;;;;;;;25.02;11.18;;;;;;;0.73;91.58;95546.81;5008933;28;20065;-61
2022/01/18 06:43:33;;;;;;;25.35;10.90;;;;;;;0.80;91.35;95544.44;5008713;28;20038;-62
2022/01/18 06:46:00;;;;;;;27.80;11.97;;;;;;;0.79;91.40;95550.97;5008298;28;20054;-61
2022/01/18 06:48:27;;;;;;;25.15;12.18;;;;;;;0.85;91.06;95554.31;5008389;28;20064;-61
2022/01/18 06:50:54;;;;;;;40.88;18.23;;;;;;;0.71;91.06;95547.13;5007384;28;20438;-61
2022/01/18 06:53:21;;;;;;;40.97;18.23;;;;;;;0.42;92.72;95547.63;5007859;28;20050;-61
2022/01/18 06:55:52;;;;;;;39.28;16.88;;;;;;;0.62;91.66;95548.19;5010655;28;20053;-61
2022/01/18 06:58:20;;;;;;;35.87;15.37;;;;;;;0.72;92.02;95545.19;5012640;28;20123;-61
2022/01/18 07:00:47;;;;;;;37.10;15.80;;;;;;;0.76;91.63;95554.28;5011563;28;20103;-61
2022/01/18 07:03:15;;;;;;;40.97;16.75;;;;;;;0.87;91.47;95552.91;5012733;28;20159;-60
2022/01/18 07:05:42;;;;;;;39.10;16.50;;;;;;;0.86;91.27;95551.28;5011899;28;20045;-61
2022/01/18 07:08:13;;;;;;;37.28;16.10;;;;;;;0.96;90.94;95552.91;5012151;28;20053;-61
2022/01/18 07:10:40;;;;;;;29.27;12.10;;;;;;;1.03;90.73;95545.16;5010423;28;20046;-61
2022/01/18 07:13:08;;;;;;;21.40;8.70;;;;;;;1.06;89.87;95552.63;5011746;28;20501;-61
2022/01/18 07:15:35;;;;;;;19.90;8.27;;;;;;;1.20;89.53;95549.78;5026718;28;20050;-62
2022/01/18 07:18:05;;;;;;;17.45;7.47;;;;;;;1.24;88.91;95547.25;5011568;28;20562;-61
2022/01/18 07:20:33;;;;;;;18.65;8.30;;;;;;;1.24;88.67;95560.78;5012067;28;20521;-61
2022/01/18 07:23:00;;;;;;;16.97;8.27;;;;;;;1.34;88.32;95557.78;5009329;28;20049;-61
2022/01/18 07:25:28;;;;;;;22.95;10.30;;;;;;;1.35;87.98;95560.16;5010876;28;20100;-61
2022/01/18 07:27:54;;;;;;;26.67;12.30;;;;;;;1.32;88.24;95562.72;5011702;28;20041;-61
2022/01/18 07:30:21;;;;;;;40.90;16.52;;;;;;;1.35;87.86;95557.47;5043890;28;20045;-61
2022/01/18 07:32:48;;;;;;;30.58;13.80;;;;;;;1.28;88.30;95570.66;5011243;28;20046;-62
2022/01/18 07:35:15;;;;;;;29.33;13.23;;;;;;;1.20;88.62;95569.50;5019911;28;20038;-62
2022/01/18 07:37:43;;;;;;;26.10;13.32;;;;;;;1.29;88.66;95566.84;5021391;28;20044;-62
2022/01/18 07:40:10;;;;;;;23.13;11.52;;;;;;;1.09;88.77;95572.84;5020377;28;20041;-62
2022/01/18 07:42:36;;;;;;;8.48;4.13;;;;;;;0.97;88.74;95568.81;5028161;28;20502;-63
2022/01/18 07:45:04;;;;;;;9.70;5.00;;;;;;;1.28;87.93;95577.97;5031669;28;20037;-62
2022/01/18 07:47:31;;;;;;;11.67;5.20;;;;;;;1.44;87.32;95581.03;5031599;28;20521;-62
2022/01/18 07:49:57;;;;;;;11.75;5.47;;;;;;;1.51;86.85;95582.16;5030671;28;20049;-62
2022/01/18 07:52:24;;;;;;;24.88;11.68;;;;;;;1.24;87.14;95583.22;5031529;28;20041;-60
2022/01/18 07:54:51;;;;;;;23.60;10.77;;;;;;;1.05;88.30;95594.31;5030688;28;20045;-61
2022/01/18 07:57:19;;;;;;;14.80;6.90;;;;;;;1.00;89.06;95586.31;5029723;28;20071;-61
2022/01/18 07:59:47;;;;;;;12.43;5.57;;;;;;;1.20;88.41;95585.75;5030587;28;20050;-61
2022/01/18 08:02:14;;;;;;;9.60;5.10;;;;;;;1.06;88.05;95586.97;5031398;28;20417;-61
2022/01/18 08:04:41;;;;;;;11.45;5.70;;;;;;;1.22;87.84;95582.72;5030729;28;20046;-61
2022/01/18 08:07:08;;;;;;;13.02;6.25;;;;;;;1.46;87.28;95587.72;5029867;28;20406;-60
2022/01/18 08:09:36;;;;;;;14.68;7.15;;;;;;;1.64;87.08;95588.53;5019871;28;20335;-61
2022/01/18 08:12:04;;;;;;;12.80;6.67;;;;;;;1.77;86.61;95587.59;5010641;28;20652;-61
2022/01/18 08:14:32;;;;;;;13.43;7.22;;;;;;;1.67;86.86;95590.63;5011255;28;20104;-61
2022/01/18 08:17:01;;;;;;;14.07;7.47;;;;;;;1.63;86.57;95603.19;5010816;28;20494;-61
2022/01/18 08:19:29;;;;;;;11.50;6.50;;;;;;;1.38;86.64;95599.31;5010382;28;20561;-61
2022/01/18 08:21:57;;;;;;;9.90;5.25;;;;;;;1.12;87.57;95604.66;5030980;28;20053;-60
2022/01/18 08:24:25;;;;;;;9.57;4.90;;;;;;;1.36;86.61;95599.63;5026473;28;20055;-60
2022/01/18 08:26:51;;;;;;;11.82;6.00;;;;;;;1.36;87.07;95604.25;5030339;28;20041;-61
2022/01/18 08:29:18;;;;;;;8.75;4.35;;;;;;;0.94;88.33;95603.78;5030952;28;20050;-61
2022/01/18 08:32:06;;;;;;;10.77;5.13;;;;;;;1.13;87.63;95601.63;5030208;28;20065;-61
2022/01/18 08:34:33;;;;;;;8.80;4.40;;;;;;;1.14;87.35;95614.03;5062864;28;20532;-61
2022/01/18 08:37:00;;;;;;;7.27;3.77;;;;;;;1.10;87.65;95609.56;5030513;28;20057;-61
2022/01/18 08:39:27;;;;;;;8.38;4.32;;;;;;;1.03;87.57;95612.75;5030970;28;20052;-60
2022/01/18 08:41:54;;;;;;;8.07;4.10;;;;;;;1.10;87.00;95614.97;5029932;28;20041;-61
2022/01/18 08:44:21;;;;;;;8.35;4.53;;;;;;;1.08;87.64;95606.38;5030636;28;20446;-61
2022/01/18 08:46:48;;;;;;;7.10;3.95;;;;;;;1.15;86.84;95609.44;5030213;28;20045;-61
2022/01/18 08:49:15;;;;;;;8.30;4.20;;;;;;;1.28;86.40;95605.81;5030756;28;20380;-61
2022/01/18 08:51:42;;;;;;;8.07;3.92;;;;;;;1.31;86.26;95598.97;5029972;28;20132;-61
2022/01/18 08:54:08;;;;;;;9.82;4.60;;;;;;;1.50;85.83;95602.19;5030075;28;20046;-61
2022/01/18 08:56:35;;;;;;;8.70;4.40;;;;;;;1.51;85.39;95609.22;5029632;28;20389;-61
2022/01/18 08:59:23;;;;;;;9.73;4.68;;;;;;;1.51;85.85;95620.03;5029011;28;20595;-62
2022/01/18 09:01:50;;;;;;;11.53;5.30;;;;;;;1.70;85.58;95621.66;5029277;28;20188;-61
2022/01/18 09:04:19;;;;;;;10.18;4.65;;;;;;;1.73;84.46;95616.41;5030332;28;20052;-61
2022/01/18 09:06:48;;;;;;;11.85;5.35;;;;;;;1.40;84.77;95624.94;5028192;28;20049;-61
2022/01/18 09:09:17;;;;;;;9.00;4.60;;;;;;;1.67;84.72;95620.38;5021434;28;20038;-61
2022/01/18 09:11:45;;;;;;;12.70;4.82;;;;;;;1.40;85.25;95613.31;5009861;28;20045;-61
2022/01/18 09:14:13;;;;;;;15.60;7.03;;;;;;;1.79;83.75;95617.03;5010131;28;20068;-61
2022/01/18 09:16:40;;;;;;;9.85;4.88;;;;;;;1.62;84.22;95619.72;5009290;28;20050;-61
2022/01/18 09:19:07;;;;;;;10.52;5.05;;;;;;;1.30;84.17;95622.50;5010126;28;20104;-61
2022/01/18 09:21:34;;;;;;;11.43;5.00;;;;;;;1.60;83.99;95618.13;5010205;28;20389;-61
2022/01/18 09:24:02;;;;;;;8.98;4.45;;;;;;;1.24;85.82;95622.97;5008830;28;21716;-61
2022/01/18 09:26:29;;;;;;;10.43;4.20;;;;;;;1.48;84.64;95619.88;5010049;28;20081;-61
2022/01/18 09:28:56;;;;;;;10.98;5.47;;;;;;;1.29;84.90;95630.94;5009395;28;20533;-61
2022/01/18 09:31:22;;;;;;;13.30;5.00;;;;;;;1.46;84.60;95622.88;5010072;28;20058;-60
2022/01/18 09:33:49;;;;;;;10.35;4.88;;;;;;;1.59;84.64;95632.78;5008884;28;20042;-59
2022/01/18 09:36:16;;;;;;;10.88;5.20;;;;;;;1.42;85.68;95623.81;5009589;28;20058;-60
2022/01/18 09:38:43;;;;;;;11.53;5.20;;;;;;;1.52;84.98;95620.81;5009390;28;20057;-60
2022/01/18 09:41:11;;;;;;;11.25;5.30;;;;;;;1.55;84.95;95620.19;5009713;28;20050;-60
2022/01/18 09:43:41;;;;;;;9.85;4.70;;;;;;;1.67;84.68;95620.38;5009202;28;20418;-59
2022/01/18 09:46:08;;;;;;;10.40;4.60;;;;;;;1.84;83.40;95619.59;5009426;28;20050;-60
2022/01/18 09:48:35;;;;;;;13.75;6.03;;;;;;;1.59;84.10;95616.53;5009760;28;20038;-60
2022/01/18 09:51:03;;;;;;;14.07;5.50;;;;;;;1.80;83.75;95615.94;5008505;28;21591;-59
2022/01/18 09:53:30;;;;;;;12.73;6.82;;;;;;;1.64;83.74;95618.28;5009487;28;20068;-59
2022/01/18 09:55:57;;;;;;;13.63;7.22;;;;;;;1.49;85.24;95618.72;5009097;28;20053;-60
2022/01/18 09:58:23;;;;;;;14.60;8.82;;;;;;;1.80;83.36;95607.81;5009628;28;20049;-61
2022/01/18 10:00:52;;;;;;;12.32;5.85;;;;;;;1.65;83.59;95611.78;5008842;28;20046;-60
2022/01/18 10:03:37;;;;;;;16.77;9.20;;;;;;;2.07;82.77;95605.88;5009602;28;20091;-60
2022/01/18 10:06:05;;;;;;;12.13;5.90;;;;;;;1.71;83.06;95612.41;5008569;28;20541;-60
2022/01/18 10:08:36;;;;;;;11.25;5.88;;;;;;;2.03;82.70;95603.00;5009438;28;20034;-61
2022/01/18 10:11:16;;;;;;;12.95;6.90;;;;;;;2.05;81.92;95600.78;5008204;28;21621;-61
2022/01/18 10:13:49;;;;;;;13.05;7.00;;;;;;;2.08;82.93;95581.19;5008569;28;20054;-61
2022/01/18 10:16:20;;;;;;;9.80;5.43;;;;;;;1.64;83.24;95593.16;5008780;28;20046;-60
2022/01/18 10:18:50;;;;;;;10.38;5.90;;;;;;;1.58;84.20;95587.88;5008511;28;20046;-64
2022/01/18 10:21:31;;;;;;;11.55;5.95;;;;;;;1.84;82.77;95591.72;5009189;28;20074;-60
2022/01/18 10:24:16;;;;;;;9.88;5.05;;;;;;;2.26;82.18;95581.97;5008286;28;20046;-61
2022/01/18 10:26:45;;;;;;;11.10;5.65;;;;;;;2.04;81.94;95588.38;5008742;28;20050;-60
2022/01/18 10:29:12;;;;;;;12.10;6.47;;;;;;;2.43;80.82;95580.34;5008057;28;20042;-60
2022/01/18 10:32:12;;;;;;;9.02;4.38;;;;;;;1.96;81.76;95589.19;5008642;28;20050;-60
2022/01/18 10:37:25;;;;;;;8.85;4.55;;;;;;;1.97;81.84;95579.94;5008343;28;21465;-60
2022/01/18 10:40:05;;;;;;;9.32;4.95;;;;;;;2.19;81.40;95566.22;5008370;28;20062;-60
2022/01/18 10:42:51;;;;;;;11.37;6.43;;;;;;;2.74;79.87;95564.63;5009060;28;20045;-60
2022/01/18 10:45:33;;;;;;;10.48;5.80;;;;;;;2.51;79.60;95565.97;5008230;28;21721;-60
2022/01/18 10:48:15;;;;;;;9.23;5.07;;;;;;;2.55;79.71;95572.34;5006901;28;20402;-60
2022/01/18 10:50:44;;;;;;;8.20;4.10;;;;;;;2.21;79.60;95549.63;5040036;28;20402;-60
2022/01/18 10:53:11;;;;;;;10.93;6.03;;;;;;;2.29;79.96;95556.94;5008769;28;20052;-60
2022/01/18 10:55:39;;;;;;;9.93;4.90;;;;;;;1.67;81.57;95554.59;5008315;28;20111;-60
2022/01/18 10:58:22;;;;;;;9.02;4.30;;;;;;;1.92;81.48;95537.56;5008620;28;20049;-60
2022/01/18 11:00:49;;;;;;;9.75;5.20;;;;;;;1.96;80.69;95538.53;5008132;28;20038;-60
2022/01/18 11:03:16;;;;;;;9.40;4.80;;;;;;;2.70;78.82;95535.81;5008061;28;20046;-60
2022/01/18 11:05:44;;;;;;;9.35;4.80;;;;;;;2.89;77.75;95529.97;5008218;28;20050;-59
2022/01/18 11:08:15;;;;;;;11.10;4.20;;;;;;;3.05;76.81;95520.16;5008505;28;20052;-60
2022/01/18 11:10:45;;;;;;;8.55;4.40;;;;;;;3.18;76.17;95529.19;4988803;28;20049;-60
2022/01/18 11:13:34;;;;;;;9.40;4.97;;;;;;;3.11;75.40;95520.75;4989163;28;20104;-61
2022/01/18 11:16:12;;;;;;;6.07;3.40;;;;;;;3.24;75.62;95516.19;4987679;28;21478;-61
2022/01/18 11:18:45;;;;;;;7.13;4.18;;;;;;;3.24;74.06;95513.50;4988858;28;20050;-60
2022/01/18 11:21:12;;;;;;;5.47;3.10;;;;;;;3.34;73.81;95518.53;4988970;28;20506;-60
2022/01/18 11:23:41;;;;;;;6.32;3.60;;;;;;;3.12;74.85;95516.91;4988520;28;20588;-60
2022/01/18 11:26:10;;;;;;;6.32;3.28;;;;;;;2.93;74.54;95517.34;4988857;28;20038;-60
2022/01/18 11:28:37;;;;;;;4.95;2.53;;;;;;;3.15;72.71;95517.06;4988490;28;20050;-58
2022/01/18 11:31:10;;;;;;;7.85;3.80;;;;;;;2.41;75.03;95518.34;4988841;28;20049;-60
2022/01/18 11:33:48;;;;;;;5.80;2.90;;;;;;;2.47;74.48;95511.63;4988766;28;20124;-60
2022/01/18 11:36:22;;;;;;;7.38;3.60;;;;;;;3.12;74.23;95515.00;4988838;28;20042;-60
2022/01/18 11:38:58;;;;;;;8.10;3.45;;;;;;;2.41;75.82;95510.22;4988178;28;20077;-60
2022/01/18 11:41:27;;;;;;;8.82;4.47;;;;;;;3.12;73.72;95511.47;4991829;28;20381;-60
2022/01/18 11:43:56;;;;;;;6.68;4.07;;;;;;;2.77;75.05;95514.38;4991651;28;20050;-60
2022/01/18 11:46:23;;;;;;;7.97;4.30;;;;;;;2.75;74.37;95509.28;4992533;28;20042;-60
2022/01/18 11:49:02;;;;;;;6.53;3.47;;;;;;;2.77;74.32;95515.16;4993547;28;20056;-60
2022/01/18 11:51:57;;;;;;;12.07;5.40;;;;;;;2.73;74.81;95513.44;5012113;28;20052;-60
2022/01/18 11:54:39;;;;;;;6.55;3.15;;;;;;;2.81;74.00;95512.63;5009070;28;20607;-60
2022/01/18 11:57:21;;;;;;;6.13;3.55;;;;;;;2.56;74.80;95517.03;5011504;28;20134;-61
2022/01/18 11:59:49;;;;;;;8.53;3.67;;;;;;;2.65;74.59;95512.38;5010931;28;20089;-61
2022/01/18 12:02:38;;;;;;;7.25;3.95;;;;;;;2.44;75.40;95522.34;5011089;28;20068;-60
2022/01/18 12:05:14;;;;;;;7.53;3.78;;;;;;;2.69;74.05;95518.72;5010494;28;20050;-60
2022/01/18 12:07:43;;;;;;;8.35;3.90;;;;;;;2.72;75.09;95509.94;5011013;28;20042;-60
2022/01/18 12:10:30;;;;;;;10.63;4.78;;;;;;;2.97;74.95;95513.63;5009741;28;20046;-60
2022/01/18 12:13:01;;;;;;;9.47;4.03;;;;;;;2.92;74.07;95516.56;5006773;28;20486;-60
2022/01/18 12:15:36;;;;;;;7.10;3.80;;;;;;;2.72;74.56;95518.09;5011300;28;20050;-60
2022/01/18 12:18:12;;;;;;;7.13;3.08;;;;;;;2.75;73.97;95517.41;5010027;28;20630;-61
2022/01/18 12:20:47;;;;;;;9.75;3.78;;;;;;;3.13;73.50;95507.66;5010911;28;20046;-60
2022/01/18 12:23:41;;;;;;;10.95;4.13;;;;;;;3.27;73.22;95507.41;5011294;28;20056;-61
2022/01/18 12:34:44;;;;;;;7.22;3.60;;;;;;;3.00;74.08;95504.06;5009861;28;20300;-61
2022/01/18 12:37:11;;;;;;;13.57;3.20;;;;;;;3.38;72.32;95501.28;5010174;28;20433;-60
2022/01/18 12:39:50;;;;;;;6.00;2.70;;;;;;;3.69;71.08;95502.78;5010105;28;20339;-60
2022/01/18 12:44:20;;;;;;;9.98;4.55;;;;;;;3.58;72.02;95488.81;5010300;28;20396;-60
2022/01/18 12:45:17;;;;;;;7.97;3.90;;;;;;;3.30;72.83;95488.56;5009735;28;20076;-60
2022/01/18 12:47:52;;;;;;;7.25;3.33;;;;;;;3.43;72.27;95492.13;5010369;28;20422;-60
2022/01/18 12:50:47;;;;;;;8.07;3.58;;;;;;;3.70;70.78;95490.00;5010618;28;20054;-60
2022/01/18 12:53:22;;;;;;;9.20;3.80;;;;;;;3.16;72.54;95486.09;5009115;28;20734;-61
2022/01/18 12:56:03;;;;;;;7.80;3.90;;;;;;;3.36;72.55;95484.53;5010314;28;20038;-61
2022/01/18 12:58:43;;;;;;;8.95;4.78;;;;;;;3.59;71.29;95478.75;5010704;28;20044;-60
2022/01/18 13:01:11;;;;;;;8.75;4.28;;;;;;;3.34;71.83;95483.25;5009392;28;20078;-60
2022/01/18 13:03:42;;;;;;;7.82;4.00;;;;;;;3.31;71.84;95478.50;5010059;28;20056;-61
2022/01/18 13:06:16;;;;;;;6.90;4.10;;;;;;;3.14;72.08;95480.22;5010140;28;20053;-60
2022/01/18 13:08:48;;;;;;;12.77;4.20;;;;;;;3.03;73.05;95483.63;5010009;28;20041;-61
2022/01/18 13:11:31;;;;;;;9.38;4.35;;;;;;;3.18;72.79;95475.72;5009936;28;20053;-61
2022/01/18 13:14:03;;;;;;;8.82;3.90;;;;;;;3.34;71.92;95477.81;5009569;28;20068;-60
2022/01/18 13:27:28;;;;;;;6.57;3.17;;;;;;;3.53;69.93;95480.09;5009824;28;20038;-60